sensor_id;sensor_type;location;lat;lon;timestamp;pressure;altitude;pressure_sealevel;temperature;humidity
34696;BME280;20918;51.138;17.370;2023-11-21T00:00:29;99327.83;;;7.13;100.00
34696;BME280;20918;51.138;17.370;2023-11-21T00:03:31;99327.83;;;7.12;100.00
34696;BME280;20918;51.138;17.370;2023-11-21T00:06:31;99330.89;;;7.11;100.00
34696;BME280;20918;51.138;17.370;2023-11-21T00:09:33;99330.95;;;7.11;100.00
34696;BME280;20918;51.138;17.370;2023-11-21T00:12:34;99332.80;;;7.10;100.00
34696;BME280;20918;51.138;17.370;2023-11-21T00:15:34;99333.21;;;7.09;100.00
34696;BME280;20918;51.138;17.370;2023-11-21T00:18:35;99334.77;;;7.09;100.00
34696;BME280;20918;51.138;17.370;2023-11-21T00:21:36;99339.36;;;7.09;100.00
34696;BME280;20918;51.138;17.370;2023-11-21T00:24:36;99344.17;;;7.09;100.00
34696;BME280;20918;51.138;17.370;2023-11-21T00:27:37;99345.92;;;7.09;100.00
34696;BME280;20918;51.138;17.370;2023-11-21T00:30:37;99348.59;;;7.09;100.00
34696;BME280;20918;51.138;17.370;2023-11-21T00:33:38;99349.69;;;7.08;100.00
34696;BME280;20918;51.138;17.370;2023-11-21T00:36:38;99353.29;;;7.08;100.00
34696;BME280;20918;51.138;17.370;2023-11-21T00:39:39;99351.95;;;7.07;100.00
34696;BME280;20918;51.138;17.370;2023-11-21T00:42:41;99356.84;;;7.05;100.00
34696;BME280;20918;51.138;17.370;2023-11-21T00:45:41;99356.80;;;7.06;100.00
34696;BME280;20918;51.138;17.370;2023-11-21T00:48:42;99359.34;;;7.05;100.00
34696;BME280;20918;51.138;17.370;2023-11-21T00:51:43;99355.21;;;7.04;100.00
34696;BME280;20918;51.138;17.370;2023-11-21T00:54:43;99359.00;;;7.03;100.00
34696;BME280;20918;51.138;17.370;2023-11-21T00:57:45;99359.88;;;7.02;100.00
34696;BME280;20918;51.138;17.370;2023-11-21T01:00:45;99358.44;;;7.00;100.00
34696;BME280;20918;51.138;17.370;2023-11-21T01:03:48;99357.65;;;7.00;100.00
34696;BME280;20918;51.138;17.370;2023-11-21T01:06:49;99358.08;;;6.99;100.00
34696;BME280;20918;51.138;17.370;2023-11-21T01:09:49;99354.84;;;6.98;100.00
34696;BME280;20918;51.138;17.370;2023-11-21T01:12:50;99358.30;;;6.96;100.00
34696;BME280;20918;51.138;17.370;2023-11-21T01:15:50;99360.19;;;6.95;100.00
34696;BME280;20918;51.138;17.370;2023-11-21T01:18:51;99357.18;;;6.94;100.00
34696;BME280;20918;51.138;17.370;2023-11-21T01:21:51;99359.77;;;6.92;100.00
34696;BME280;20918;51.138;17.370;2023-11-21T01:24:53;99367.77;;;6.90;100.00
34696;BME280;20918;51.138;17.370;2023-11-21T01:27:53;99368.02;;;6.90;100.00
34696;BME280;20918;51.138;17.370;2023-11-21T01:30:54;99369.95;;;6.89;100.00
34696;BME280;20918;51.138;17.370;2023-11-21T01:33:57;99366.40;;;6.88;100.00
34696;BME280;20918;51.138;17.370;2023-11-21T01:36:57;99368.98;;;6.87;100.00
34696;BME280;20918;51.138;17.370;2023-11-21T01:39:59;99374.77;;;6.86;100.00
34696;BME280;20918;51.138;17.370;2023-11-21T01:43:02;99375.09;;;6.86;100.00
34696;BME280;20918;51.138;17.370;2023-11-21T01:46:05;99374.52;;;6.86;100.00
34696;BME280;20918;51.138;17.370;2023-11-21T01:49:06;99368.86;;;6.85;100.00
34696;BME280;20918;51.138;17.370;2023-11-21T01:52:07;99369.33;;;6.84;100.00
34696;BME280;20918;51.138;17.370;2023-11-21T01:55:09;99372.42;;;6.85;100.00
34696;BME280;20918;51.138;17.370;2023-11-21T01:58:09;99374.92;;;6.82;100.00
34696;BME280;20918;51.138;17.370;2023-11-21T02:01:11;99377.21;;;6.81;100.00
34696;BME280;20918;51.138;17.370;2023-11-21T02:04:12;99376.17;;;6.79;100.00
34696;BME280;20918;51.138;17.370;2023-11-21T02:07:13;99375.96;;;6.78;100.00
34696;BME280;20918;51.138;17.370;2023-11-21T02:10:15;99377.24;;;6.75;100.00
34696;BME280;20918;51.138;17.370;2023-11-21T02:13:16;99375.27;;;6.74;100.00
34696;BME280;20918;51.138;17.370;2023-11-21T02:16:17;99376.84;;;6.74;100.00
34696;BME280;20918;51.138;17.370;2023-11-21T02:19:18;99376.61;;;6.73;100.00
34696;BME280;20918;51.138;17.370;2023-11-21T02:22:24;99376.00;;;6.72;100.00
34696;BME280;20918;51.138;17.370;2023-11-21T02:25:28;99377.45;;;6.70;100.00
34696;BME280;20918;51.138;17.370;2023-11-21T02:28:29;99381.14;;;6.70;100.00
34696;BME280;20918;51.138;17.370;2023-11-21T02:31:30;99383.64;;;6.69;100.00
34696;BME280;20918;51.138;17.370;2023-11-21T02:34:33;99386.34;;;6.69;100.00
34696;BME280;20918;51.138;17.370;2023-11-21T02:37:33;99388.02;;;6.68;100.00
34696;BME280;20918;51.138;17.370;2023-11-21T02:40:35;99387.40;;;6.67;100.00
34696;BME280;20918;51.138;17.370;2023-11-21T02:43:36;99386.81;;;6.68;100.00
34696;BME280;20918;51.138;17.370;2023-11-21T02:46:38;99391.79;;;6.67;100.00
34696;BME280;20918;51.138;17.370;2023-11-21T02:49:40;99389.77;;;6.66;100.00
34696;BME280;20918;51.138;17.370;2023-11-21T02:52:41;99390.84;;;6.64;100.00
34696;BME280;20918;51.138;17.370;2023-11-21T02:55:41;99385.30;;;6.63;100.00
34696;BME280;20918;51.138;17.370;2023-11-21T02:58:42;99390.88;;;6.63;100.00
34696;BME280;20918;51.138;17.370;2023-11-21T03:01:44;99390.66;;;6.61;100.00
34696;BME280;20918;51.138;17.370;2023-11-21T03:04:44;99392.60;;;6.61;100.00
34696;BME280;20918;51.138;17.370;2023-11-21T03:07:45;99393.73;;;6.60;100.00
34696;BME280;20918;51.138;17.370;2023-11-21T03:10:45;99393.52;;;6.59;100.00
34696;BME280;20918;51.138;17.370;2023-11-21T03:13:46;99395.14;;;6.59;100.00
34696;BME280;20918;51.138;17.370;2023-11-21T03:16:47;99398.80;;;6.58;100.00
34696;BME280;20918;51.138;17.370;2023-11-21T03:19:49;99397.88;;;6.56;100.00
34696;BME280;20918;51.138;17.370;2023-11-21T03:22:49;99398.04;;;6.56;100.00
34696;BME280;20918;51.138;17.370;2023-11-21T03:25:50;99399.94;;;6.56;100.00
34696;BME280;20918;51.138;17.370;2023-11-21T03:28:50;99402.11;;;6.56;100.00
34696;BME280;20918;51.138;17.370;2023-11-21T03:31:53;99403.08;;;6.57;100.00
34696;BME280;20918;51.138;17.370;2023-11-21T03:34:57;99403.17;;;6.57;100.00
34696;BME280;20918;51.138;17.370;2023-11-21T03:37:58;99402.41;;;6.58;100.00
34696;BME280;20918;51.138;17.370;2023-11-21T03:40:58;99407.07;;;6.59;100.00
34696;BME280;20918;51.138;17.370;2023-11-21T03:43:59;99407.08;;;6.61;100.00
34696;BME280;20918;51.138;17.370;2023-11-21T03:46:59;99405.39;;;6.61;100.00
34696;BME280;20918;51.138;17.370;2023-11-21T03:50:00;99407.98;;;6.62;100.00
34696;BME280;20918;51.138;17.370;2023-11-21T03:53:01;99407.84;;;6.63;100.00
34696;BME280;20918;51.138;17.370;2023-11-21T03:56:03;99406.67;;;6.64;100.00
34696;BME280;20918;51.138;17.370;2023-11-21T03:59:04;99407.66;;;6.65;100.00
34696;BME280;20918;51.138;17.370;2023-11-21T04:02:04;99412.46;;;6.66;100.00
34696;BME280;20918;51.138;17.370;2023-11-21T04:05:05;99418.20;;;6.67;100.00
34696;BME280;20918;51.138;17.370;2023-11-21T04:08:07;99416.13;;;6.66;100.00
34696;BME280;20918;51.138;17.370;2023-11-21T04:11:07;99418.52;;;6.67;100.00
34696;BME280;20918;51.138;17.370;2023-11-21T04:14:09;99416.93;;;6.67;100.00
34696;BME280;20918;51.138;17.370;2023-11-21T04:17:09;99414.68;;;6.67;100.00
34696;BME280;20918;51.138;17.370;2023-11-21T04:20:10;99419.62;;;6.67;100.00
34696;BME280;20918;51.138;17.370;2023-11-21T04:23:10;99413.35;;;6.66;100.00
34696;BME280;20918;51.138;17.370;2023-11-21T04:26:14;99417.41;;;6.66;100.00
34696;BME280;20918;51.138;17.370;2023-11-21T04:29:14;99419.85;;;6.66;100.00
34696;BME280;20918;51.138;17.370;2023-11-21T04:32:14;99425.48;;;6.66;100.00
34696;BME280;20918;51.138;17.370;2023-11-21T04:35:15;99424.92;;;6.66;100.00
34696;BME280;20918;51.138;17.370;2023-11-21T04:38:15;99426.14;;;6.66;100.00
34696;BME280;20918;51.138;17.370;2023-11-21T04:41:16;99429.44;;;6.67;100.00
34696;BME280;20918;51.138;17.370;2023-11-21T04:44:18;99430.66;;;6.67;100.00
34696;BME280;20918;51.138;17.370;2023-11-21T04:47:18;99424.50;;;6.67;100.00
34696;BME280;20918;51.138;17.370;2023-11-21T04:50:20;99427.43;;;6.66;100.00
34696;BME280;20918;51.138;17.370;2023-11-21T04:53:20;99426.68;;;6.66;100.00
34696;BME280;20918;51.138;17.370;2023-11-21T04:56:21;99432.34;;;6.66;100.00
34696;BME280;20918;51.138;17.370;2023-11-21T04:59:21;99436.35;;;6.66;100.00
34696;BME280;20918;51.138;17.370;2023-11-21T05:02:24;99433.95;;;6.66;100.00
34696;BME280;20918;51.138;17.370;2023-11-21T05:05:25;99433.02;;;6.64;100.00
34696;BME280;20918;51.138;17.370;2023-11-21T05:08:26;99434.96;;;6.64;100.00
34696;BME280;20918;51.138;17.370;2023-11-21T05:11:27;99435.59;;;6.63;100.00
34696;BME280;20918;51.138;17.370;2023-11-21T05:14:29;99434.44;;;6.63;100.00
34696;BME280;20918;51.138;17.370;2023-11-21T05:17:30;99438.92;;;6.62;100.00
34696;BME280;20918;51.138;17.370;2023-11-21T05:20:31;99444.40;;;6.61;100.00
34696;BME280;20918;51.138;17.370;2023-11-21T05:23:33;99442.23;;;6.60;100.00
34696;BME280;20918;51.138;17.370;2023-11-21T05:26:34;99447.61;;;6.59;100.00
34696;BME280;20918;51.138;17.370;2023-11-21T05:29:34;99450.91;;;6.58;100.00
34696;BME280;20918;51.138;17.370;2023-11-21T05:32:35;99452.14;;;6.56;100.00
34696;BME280;20918;51.138;17.370;2023-11-21T05:35:35;99452.95;;;6.55;100.00
34696;BME280;20918;51.138;17.370;2023-11-21T05:38:36;99455.15;;;6.55;100.00
34696;BME280;20918;51.138;17.370;2023-11-21T05:41:36;99459.91;;;6.52;100.00
34696;BME280;20918;51.138;17.370;2023-11-21T05:44:41;99463.83;;;6.52;100.00
34696;BME280;20918;51.138;17.370;2023-11-21T05:47:45;99467.16;;;6.52;100.00
34696;BME280;20918;51.138;17.370;2023-11-21T05:50:46;99469.07;;;6.51;100.00
34696;BME280;20918;51.138;17.370;2023-11-21T05:53:48;99472.91;;;6.49;100.00
34696;BME280;20918;51.138;17.370;2023-11-21T05:56:49;99478.94;;;6.48;100.00
34696;BME280;20918;51.138;17.370;2023-11-21T05:59:50;99481.18;;;6.49;100.00
34696;BME280;20918;51.138;17.370;2023-11-21T06:02:52;99483.85;;;6.48;100.00
34696;BME280;20918;51.138;17.370;2023-11-21T06:05:54;99486.61;;;6.47;100.00
34696;BME280;20918;51.138;17.370;2023-11-21T06:08:54;99487.33;;;6.47;100.00
34696;BME280;20918;51.138;17.370;2023-11-21T06:11:55;99492.11;;;6.47;100.00
34696;BME280;20918;51.138;17.370;2023-11-21T06:14:56;99498.60;;;6.45;100.00
34696;BME280;20918;51.138;17.370;2023-11-21T06:17:56;99498.91;;;6.44;100.00
34696;BME280;20918;51.138;17.370;2023-11-21T06:20:57;99501.77;;;6.43;100.00
34696;BME280;20918;51.138;17.370;2023-11-21T06:23:58;99507.73;;;6.44;100.00
34696;BME280;20918;51.138;17.370;2023-11-21T06:26:59;99510.17;;;6.44;100.00
34696;BME280;20918;51.138;17.370;2023-11-21T06:30:00;99517.83;;;6.45;100.00
34696;BME280;20918;51.138;17.370;2023-11-21T06:33:00;99520.88;;;6.44;100.00
34696;BME280;20918;51.138;17.370;2023-11-21T06:36:01;99526.86;;;6.42;100.00
34696;BME280;20918;51.138;17.370;2023-11-21T06:39:02;99523.53;;;6.42;100.00
34696;BME280;20918;51.138;17.370;2023-11-21T06:42:08;99526.92;;;6.41;100.00
34696;BME280;20918;51.138;17.370;2023-11-21T06:45:08;99533.64;;;6.41;100.00
34696;BME280;20918;51.138;17.370;2023-11-21T06:48:11;99534.04;;;6.41;100.00
34696;BME280;20918;51.138;17.370;2023-11-21T06:51:11;99538.31;;;6.40;100.00
34696;BME280;20918;51.138;17.370;2023-11-21T06:54:13;99540.23;;;6.40;100.00
34696;BME280;20918;51.138;17.370;2023-11-21T06:57:15;99544.67;;;6.41;100.00
34696;BME280;20918;51.138;17.370;2023-11-21T07:00:16;99547.02;;;6.41;100.00
34696;BME280;20918;51.138;17.370;2023-11-21T07:03:18;99549.86;;;6.42;100.00
34696;BME280;20918;51.138;17.370;2023-11-21T07:06:19;99548.91;;;6.43;100.00
34696;BME280;20918;51.138;17.370;2023-11-21T07:09:20;99550.79;;;6.44;100.00
34696;BME280;20918;51.138;17.370;2023-11-21T07:12:23;99550.28;;;6.45;100.00
34696;BME280;20918;51.138;17.370;2023-11-21T07:15:26;99551.64;;;6.46;100.00
34696;BME280;20918;51.138;17.370;2023-11-21T07:18:26;99553.09;;;6.47;100.00
34696;BME280;20918;51.138;17.370;2023-11-21T07:21:27;99554.25;;;6.47;100.00
34696;BME280;20918;51.138;17.370;2023-11-21T07:24:27;99556.17;;;6.47;100.00
34696;BME280;20918;51.138;17.370;2023-11-21T07:27:28;99559.92;;;6.48;100.00
34696;BME280;20918;51.138;17.370;2023-11-21T07:30:28;99560.21;;;6.49;100.00
34696;BME280;20918;51.138;17.370;2023-11-21T07:33:29;99561.82;;;6.51;100.00
34696;BME280;20918;51.138;17.370;2023-11-21T07:36:29;99561.40;;;6.53;100.00
34696;BME280;20918;51.138;17.370;2023-11-21T07:39:30;99564.18;;;6.55;100.00
34696;BME280;20918;51.138;17.370;2023-11-21T07:42:30;99566.38;;;6.58;100.00
34696;BME280;20918;51.138;17.370;2023-11-21T07:45:32;99563.95;;;6.60;100.00
34696;BME280;20918;51.138;17.370;2023-11-21T07:48:34;99566.23;;;6.61;100.00
34696;BME280;20918;51.138;17.370;2023-11-21T07:51:35;99569.86;;;6.62;100.00
34696;BME280;20918;51.138;17.370;2023-11-21T07:54:35;99573.83;;;6.62;100.00
34696;BME280;20918;51.138;17.370;2023-11-21T07:57:36;99569.73;;;6.65;100.00
34696;BME280;20918;51.138;17.370;2023-11-21T08:00:36;99576.05;;;6.67;100.00
34696;BME280;20918;51.138;17.370;2023-11-21T08:03:38;99576.52;;;6.67;100.00
34696;BME280;20918;51.138;17.370;2023-11-21T08:06:38;99580.65;;;6.68;100.00
34696;BME280;20918;51.138;17.370;2023-11-21T08:09:39;99575.77;;;6.69;100.00
34696;BME280;20918;51.138;17.370;2023-11-21T08:12:39;99577.27;;;6.71;100.00
34696;BME280;20918;51.138;17.370;2023-11-21T08:15:40;99574.47;;;6.71;100.00
34696;BME280;20918;51.138;17.370;2023-11-21T08:18:41;99575.00;;;6.71;100.00
34696;BME280;20918;51.138;17.370;2023-11-21T08:21:42;99577.41;;;6.72;100.00
34696;BME280;20918;51.138;17.370;2023-11-21T08:24:43;99576.02;;;6.74;100.00
34696;BME280;20918;51.138;17.370;2023-11-21T08:27:43;99580.06;;;6.74;100.00
34696;BME280;20918;51.138;17.370;2023-11-21T08:30:44;99584.13;;;6.76;100.00
34696;BME280;20918;51.138;17.370;2023-11-21T08:33:44;99587.92;;;6.76;100.00
34696;BME280;20918;51.138;17.370;2023-11-21T08:36:45;99595.71;;;6.78;100.00
34696;BME280;20918;51.138;17.370;2023-11-21T08:39:47;99597.49;;;6.79;100.00
34696;BME280;20918;51.138;17.370;2023-11-21T08:42:48;99603.53;;;6.80;100.00
34696;BME280;20918;51.138;17.370;2023-11-21T08:45:49;99602.31;;;6.80;100.00
34696;BME280;20918;51.138;17.370;2023-11-21T08:48:49;99604.86;;;6.81;100.00
34696;BME280;20918;51.138;17.370;2023-11-21T08:51:53;99608.48;;;6.82;100.00
34696;BME280;20918;51.138;17.370;2023-11-21T08:54:55;99609.88;;;6.82;100.00
34696;BME280;20918;51.138;17.370;2023-11-21T08:57:56;99611.53;;;6.83;100.00
34696;BME280;20918;51.138;17.370;2023-11-21T09:00:59;99608.30;;;6.83;100.00
34696;BME280;20918;51.138;17.370;2023-11-21T09:03:59;99604.21;;;6.84;100.00
34696;BME280;20918;51.138;17.370;2023-11-21T09:07:00;99603.52;;;6.84;100.00
34696;BME280;20918;51.138;17.370;2023-11-21T09:10:01;99605.35;;;6.85;100.00
34696;BME280;20918;51.138;17.370;2023-11-21T09:13:02;99604.41;;;6.84;100.00
34696;BME280;20918;51.138;17.370;2023-11-21T09:16:03;99606.52;;;6.84;100.00
34696;BME280;20918;51.138;17.370;2023-11-21T09:19:03;99609.83;;;6.81;100.00
34696;BME280;20918;51.138;17.370;2023-11-21T09:22:05;99609.15;;;6.73;100.00
34696;BME280;20918;51.138;17.370;2023-11-21T09:25:06;99615.80;;;6.61;100.00
34696;BME280;20918;51.138;17.370;2023-11-21T09:28:08;99622.77;;;6.44;100.00
34696;BME280;20918;51.138;17.370;2023-11-21T09:31:09;99626.21;;;6.30;100.00
34696;BME280;20918;51.138;17.370;2023-11-21T09:34:10;99624.08;;;6.24;100.00
34696;BME280;20918;51.138;17.370;2023-11-21T09:37:11;99626.81;;;6.21;100.00
34696;BME280;20918;51.138;17.370;2023-11-21T09:40:12;99623.84;;;6.15;100.00
34696;BME280;20918;51.138;17.370;2023-11-21T09:43:17;99626.27;;;6.12;100.00
34696;BME280;20918;51.138;17.370;2023-11-21T09:46:18;99632.88;;;6.07;100.00
34696;BME280;20918;51.138;17.370;2023-11-21T09:49:23;99639.59;;;6.03;100.00
34696;BME280;20918;51.138;17.370;2023-11-21T09:52:28;99642.77;;;6.01;100.00
34696;BME280;20918;51.138;17.370;2023-11-21T09:55:30;99644.31;;;5.98;100.00
34696;BME280;20918;51.138;17.370;2023-11-21T09:58:36;99652.13;;;5.99;100.00
34696;BME280;20918;51.138;17.370;2023-11-21T10:01:38;99650.64;;;5.92;100.00
34696;BME280;20918;51.138;17.370;2023-11-21T10:04:39;99647.05;;;5.84;100.00
34696;BME280;20918;51.138;17.370;2023-11-21T10:07:40;99655.64;;;5.75;100.00
34696;BME280;20918;51.138;17.370;2023-11-21T10:10:44;99656.54;;;5.64;100.00
34696;BME280;20918;51.138;17.370;2023-11-21T10:13:46;99657.74;;;5.60;100.00
34696;BME280;20918;51.138;17.370;2023-11-21T10:16:48;99657.30;;;5.57;100.00
34696;BME280;20918;51.138;17.370;2023-11-21T10:19:50;99661.23;;;5.55;100.00
34696;BME280;20918;51.138;17.370;2023-11-21T10:22:50;99662.73;;;5.52;100.00
34696;BME280;20918;51.138;17.370;2023-11-21T10:25:51;99664.26;;;5.51;100.00
34696;BME280;20918;51.138;17.370;2023-11-21T10:29:00;99669.34;;;5.54;100.00
34696;BME280;20918;51.138;17.370;2023-11-21T10:32:04;99669.96;;;5.59;100.00
34696;BME280;20918;51.138;17.370;2023-11-21T10:35:07;99670.75;;;5.58;100.00
34696;BME280;20918;51.138;17.370;2023-11-21T10:38:10;99671.84;;;5.59;100.00
34696;BME280;20918;51.138;17.370;2023-11-21T10:41:11;99675.11;;;5.58;100.00
34696;BME280;20918;51.138;17.370;2023-11-21T10:44:19;99679.95;;;5.55;100.00
34696;BME280;20918;51.138;17.370;2023-11-21T10:47:24;99682.75;;;5.50;100.00
34696;BME280;20918;51.138;17.370;2023-11-21T10:50:26;99683.34;;;5.46;100.00
34696;BME280;20918;51.138;17.370;2023-11-21T10:53:28;99682.81;;;5.42;100.00
34696;BME280;20918;51.138;17.370;2023-11-21T10:56:29;99684.89;;;5.40;100.00
34696;BME280;20918;51.138;17.370;2023-11-21T10:59:31;99684.88;;;5.38;100.00
34696;BME280;20918;51.138;17.370;2023-11-21T11:02:32;99690.58;;;5.35;100.00
34696;BME280;20918;51.138;17.370;2023-11-21T11:05:34;99694.67;;;5.35;100.00
34696;BME280;20918;51.138;17.370;2023-11-21T11:08:37;99697.45;;;5.35;100.00
34696;BME280;20918;51.138;17.370;2023-11-21T11:11:40;99698.64;;;5.28;100.00
34696;BME280;20918;51.138;17.370;2023-11-21T11:14:41;99697.77;;;5.25;100.00
34696;BME280;20918;51.138;17.370;2023-11-21T11:17:45;99697.05;;;5.19;100.00
34696;BME280;20918;51.138;17.370;2023-11-21T11:20:47;99693.40;;;5.09;100.00
34696;BME280;20918;51.138;17.370;2023-11-21T11:27:37;99705.48;;;4.90;100.00
34696;BME280;20918;51.138;17.370;2023-11-21T11:37:20;99707.95;;;4.44;100.00
34696;BME280;20918;51.138;17.370;2023-11-21T11:40:22;99712.69;;;4.37;100.00
34696;BME280;20918;51.138;17.370;2023-11-21T11:43:26;99717.36;;;4.32;100.00
34696;BME280;20918;51.138;17.370;2023-11-21T11:46:43;99727.05;;;4.27;100.00
34696;BME280;20918;51.138;17.370;2023-11-21T11:53:14;99733.02;;;4.23;100.00
34696;BME280;20918;51.138;17.370;2023-11-21T11:56:19;99737.16;;;4.18;100.00
34696;BME280;20918;51.138;17.370;2023-11-21T11:59:20;99735.65;;;4.12;100.00
34696;BME280;20918;51.138;17.370;2023-11-21T12:02:23;99739.64;;;4.06;100.00
34696;BME280;20918;51.138;17.370;2023-11-21T12:05:24;99744.13;;;4.02;100.00
34696;BME280;20918;51.138;17.370;2023-11-21T12:08:28;99742.34;;;4.01;100.00
34696;BME280;20918;51.138;17.370;2023-11-21T12:11:32;99746.70;;;4.01;100.00
34696;BME280;20918;51.138;17.370;2023-11-21T12:14:36;99747.30;;;3.96;100.00
34696;BME280;20918;51.138;17.370;2023-11-21T12:17:37;99749.01;;;3.87;100.00
34696;BME280;20918;51.138;17.370;2023-11-21T12:20:38;99751.66;;;3.76;100.00
34696;BME280;20918;51.138;17.370;2023-11-21T12:23:41;99753.15;;;3.73;100.00
34696;BME280;20918;51.138;17.370;2023-11-21T12:26:42;99752.06;;;3.63;100.00
34696;BME280;20918;51.138;17.370;2023-11-21T12:29:44;99752.77;;;3.53;100.00
34696;BME280;20918;51.138;17.370;2023-11-21T12:32:51;99755.67;;;3.50;100.00
34696;BME280;20918;51.138;17.370;2023-11-21T12:35:52;99758.73;;;3.40;100.00
34696;BME280;20918;51.138;17.370;2023-11-21T12:38:54;99765.54;;;3.28;100.00
34696;BME280;20918;51.138;17.370;2023-11-21T12:41:55;99772.58;;;3.19;100.00
34696;BME280;20918;51.138;17.370;2023-11-21T12:48:08;99781.05;;;3.05;100.00
34696;BME280;20918;51.138;17.370;2023-11-21T12:51:12;99785.15;;;2.96;100.00
34696;BME280;20918;51.138;17.370;2023-11-21T12:54:14;99794.64;;;2.87;100.00
34696;BME280;20918;51.138;17.370;2023-11-21T12:57:16;99796.60;;;2.80;100.00
34696;BME280;20918;51.138;17.370;2023-11-21T13:00:18;99804.09;;;2.76;100.00
34696;BME280;20918;51.138;17.370;2023-11-21T13:03:28;99806.80;;;2.75;100.00
34696;BME280;20918;51.138;17.370;2023-11-21T13:06:31;99812.63;;;2.78;100.00
34696;BME280;20918;51.138;17.370;2023-11-21T13:09:34;99810.07;;;2.78;100.00
34696;BME280;20918;51.138;17.370;2023-11-21T13:12:35;99812.93;;;2.77;100.00
34696;BME280;20918;51.138;17.370;2023-11-21T13:15:39;99816.91;;;2.75;100.00
34696;BME280;20918;51.138;17.370;2023-11-21T13:18:41;99828.09;;;2.73;100.00
34696;BME280;20918;51.138;17.370;2023-11-21T13:21:41;99835.64;;;2.73;100.00
34696;BME280;20918;51.138;17.370;2023-11-21T13:24:42;99835.99;;;2.75;100.00
34696;BME280;20918;51.138;17.370;2023-11-21T13:27:46;99838.23;;;2.75;100.00
34696;BME280;20918;51.138;17.370;2023-11-21T13:30:48;99842.19;;;2.74;100.00
34696;BME280;20918;51.138;17.370;2023-11-21T13:33:49;99844.59;;;2.65;100.00
34696;BME280;20918;51.138;17.370;2023-11-21T13:36:56;99848.46;;;2.60;100.00
34696;BME280;20918;51.138;17.370;2023-11-21T13:39:59;99854.73;;;2.59;100.00
34696;BME280;20918;51.138;17.370;2023-11-21T13:42:59;99857.16;;;2.59;100.00
34696;BME280;20918;51.138;17.370;2023-11-21T13:46:04;99861.95;;;2.56;100.00
34696;BME280;20918;51.138;17.370;2023-11-21T13:49:13;99866.45;;;2.58;100.00
34696;BME280;20918;51.138;17.370;2023-11-21T13:52:15;99865.43;;;2.54;100.00
34696;BME280;20918;51.138;17.370;2023-11-21T13:55:17;99868.70;;;2.47;100.00
34696;BME280;20918;51.138;17.370;2023-11-21T13:58:18;99877.59;;;2.41;100.00
34696;BME280;20918;51.138;17.370;2023-11-21T14:01:26;99883.56;;;2.36;100.00
34696;BME280;20918;51.138;17.370;2023-11-21T14:04:29;99889.45;;;2.30;100.00
34696;BME280;20918;51.138;17.370;2023-11-21T14:07:30;99892.61;;;2.23;100.00
34696;BME280;20918;51.138;17.370;2023-11-21T14:10:35;99893.59;;;2.17;100.00
34696;BME280;20918;51.138;17.370;2023-11-21T14:13:44;99896.83;;;2.09;100.00
34696;BME280;20918;51.138;17.370;2023-11-21T14:16:48;99903.45;;;2.05;100.00
34696;BME280;20918;51.138;17.370;2023-11-21T14:19:49;99910.35;;;2.06;100.00
34696;BME280;20918;51.138;17.370;2023-11-21T14:22:50;99913.70;;;1.98;100.00
34696;BME280;20918;51.138;17.370;2023-11-21T14:25:52;99922.39;;;1.89;100.00
34696;BME280;20918;51.138;17.370;2023-11-21T14:28:52;99931.39;;;1.81;100.00
34696;BME280;20918;51.138;17.370;2023-11-21T14:31:54;99940.74;;;1.73;100.00
34696;BME280;20918;51.138;17.370;2023-11-21T14:34:57;99949.06;;;1.59;100.00
34696;BME280;20918;51.138;17.370;2023-11-21T14:38:01;99958.21;;;1.53;100.00
34696;BME280;20918;51.138;17.370;2023-11-21T14:41:08;99961.44;;;1.55;100.00
34696;BME280;20918;51.138;17.370;2023-11-21T14:44:08;99965.11;;;1.54;100.00
34696;BME280;20918;51.138;17.370;2023-11-21T14:47:12;99974.89;;;1.52;100.00
34696;BME280;20918;51.138;17.370;2023-11-21T14:50:16;99975.60;;;1.43;100.00
34696;BME280;20918;51.138;17.370;2023-11-21T14:53:35;99977.70;;;1.32;100.00
34696;BME280;20918;51.138;17.370;2023-11-21T14:56:54;99983.77;;;1.25;100.00
34696;BME280;20918;51.138;17.370;2023-11-21T14:59:54;99991.45;;;1.21;100.00
34696;BME280;20918;51.138;17.370;2023-11-21T15:02:58;99993.50;;;1.19;100.00
34696;BME280;20918;51.138;17.370;2023-11-21T15:05:59;99995.31;;;1.18;100.00
34696;BME280;20918;51.138;17.370;2023-11-21T15:09:20;99998.70;;;1.14;100.00
34696;BME280;20918;51.138;17.370;2023-11-21T15:12:35;100002.52;;;1.15;100.00
34696;BME280;20918;51.138;17.370;2023-11-21T15:15:38;100005.80;;;1.12;100.00
34696;BME280;20918;51.138;17.370;2023-11-21T15:18:40;100009.09;;;1.08;100.00
34696;BME280;20918;51.138;17.370;2023-11-21T15:21:41;100016.28;;;1.05;100.00
34696;BME280;20918;51.138;17.370;2023-11-21T15:24:42;100020.35;;;1.04;100.00
34696;BME280;20918;51.138;17.370;2023-11-21T15:27:45;100022.10;;;0.96;100.00
34696;BME280;20918;51.138;17.370;2023-11-21T15:30:49;100025.71;;;0.89;100.00
34696;BME280;20918;51.138;17.370;2023-11-21T15:33:52;100027.59;;;0.85;100.00
34696;BME280;20918;51.138;17.370;2023-11-21T15:37:00;100030.91;;;0.82;100.00
34696;BME280;20918;51.138;17.370;2023-11-21T15:40:01;100042.55;;;0.78;100.00
34696;BME280;20918;51.138;17.370;2023-11-21T15:43:06;100044.75;;;0.76;100.00
34696;BME280;20918;51.138;17.370;2023-11-21T15:46:07;100053.76;;;0.71;100.00
34696;BME280;20918;51.138;17.370;2023-11-21T15:49:08;100057.20;;;0.65;100.00
34696;BME280;20918;51.138;17.370;2023-11-21T15:52:12;100061.52;;;0.55;100.00
34696;BME280;20918;51.138;17.370;2023-11-21T15:55:13;100066.91;;;0.50;100.00
34696;BME280;20918;51.138;17.370;2023-11-21T15:58:14;100069.98;;;0.45;100.00
34696;BME280;20918;51.138;17.370;2023-11-21T16:01:14;100080.42;;;0.43;100.00
34696;BME280;20918;51.138;17.370;2023-11-21T16:04:15;100083.15;;;0.41;100.00
34696;BME280;20918;51.138;17.370;2023-11-21T16:07:17;100086.35;;;0.40;100.00